This is the latest recevied weather packets stored in our database for station/object HP1CDW-10. If no packets are shown the sender has not sent any weather packets the latest 10 day(s).
| Time | Temp. | Humidity | Pressure | Rain* | Wind** | Luminosity | Snow |
|---|---|---|---|---|---|---|---|
| 1777474187 | 35.56° C | 42% | 1002.7 hPa | - | - | - | - |
| 1777473582 | 34.44° C | 44% | 1002.8 hPa | - | - | - | - |
| 1777472978 | 35° C | 44% | 1002.9 hPa | - | - | - | - |
| 1777472373 | 33.89° C | 46% | 1002.9 hPa | - | - | - | - |
| 1777471126 | 33.89° C | 47% | 1002.9 hPa | - | - | - | - |
| 1777470522 | 33.89° C | 47% | 1002.8 hPa | - | - | - | - |
| 1777469312 | 33.33° C | 49% | 1003 hPa | - | - | - | - |
| 1777468707 | 35° C | 45% | 1002.8 hPa | - | - | - | - |
| 1777468102 | 33.89° C | 48% | 1002.8 hPa | - | - | - | - |
| 1777467498 | 35° C | 45% | 1002.6 hPa | - | - | - | - |
| 1777466893 | 35° C | 46% | 1002.4 hPa | - | - | - | - |
| 1777466288 | 34.44° C | 46% | 1002.5 hPa | - | - | - | - |
| 1777465683 | 34.44° C | 47% | 1002.3 hPa | - | - | - | - |
| 1777465078 | 34.44° C | 47% | 1002.2 hPa | - | - | - | - |
| 1777461450 | 34.44° C | 47% | 1001.6 hPa | - | - | - | - |
| 1777460845 | 34.44° C | 46% | 1001.4 hPa | - | - | - | - |
| 1777460240 | 34.44° C | 47% | 1001.4 hPa | - | - | - | - |
| 1777459635 | 34.44° C | 46% | 1001.3 hPa | - | - | - | - |
| 1777459031 | 33.89° C | 47% | 1001.3 hPa | - | - | - | - |
| 1777458592 | 34.44° C | 47% | 1001.1 hPa | - | - | - | - |
| 1777458426 | 34.44° C | 47% | 1001.1 hPa | - | - | - | - |
| 1777457867 | 35° C | 46% | 1001.1 hPa | - | - | - | - |
| 1777457822 | 35° C | 46% | 1001.1 hPa | - | - | - | - |
| 1777456612 | 35° C | 45% | 1001.1 hPa | - | - | - | - |
| 1777456007 | 35° C | 44% | 1001.1 hPa | - | - | - | - |
* Rain since midnight (hover to see other rain measurements)
** Current wind speed in m/s (hover to see current wind gust speed)